createdAt,value
2023-01-19T05:15:22.568Z,15.50
2023-01-19T05:16:22.640Z,16.60
2023-01-19T05:17:22.536Z,17.00
2023-01-19T05:18:22.514Z,16.90
2023-01-19T05:19:22.503Z,16.20
2023-01-19T05:20:22.494Z,18.50
2023-01-19T05:21:22.562Z,13.80
2023-01-19T05:22:22.501Z,16.70
2023-01-19T05:23:22.496Z,17.10
2023-01-19T05:24:22.449Z,17.40
2023-01-19T05:25:22.444Z,17.80
2023-01-19T05:26:22.414Z,16.20
2023-01-19T05:27:22.491Z,15.60
2023-01-19T05:28:22.410Z,16.40
2023-01-19T05:29:22.421Z,16.80
2023-01-19T05:30:22.447Z,17.30
2023-01-19T05:31:22.507Z,18.40
2023-01-19T05:32:22.402Z,17.00
2023-01-19T05:33:22.430Z,17.20
2023-01-19T05:34:22.351Z,18.00
2023-01-19T05:35:34.801Z,17.10
2023-01-19T05:36:23.291Z,18.50
2023-01-19T05:37:22.320Z,16.50
2023-01-19T05:38:34.300Z,19.20
2023-01-19T05:39:23.274Z,17.90
2023-01-19T05:40:22.270Z,18.10
2023-01-19T05:41:22.251Z,17.00
2023-01-19T05:42:22.238Z,16.40
2023-01-19T05:43:22.209Z,18.50
2023-01-19T05:44:22.203Z,18.50
2023-01-19T05:45:22.266Z,17.90
2023-01-19T05:46:22.209Z,19.20
2023-01-19T05:47:22.182Z,17.20
2023-01-19T05:48:22.243Z,17.20
2023-01-19T05:49:22.138Z,18.10
2023-01-19T05:50:22.160Z,17.00
2023-01-19T05:51:22.108Z,19.00
2023-01-19T05:52:22.117Z,18.60
2023-01-19T05:53:22.097Z,19.80
2023-01-19T05:54:22.071Z,18.10
2023-01-19T05:55:22.123Z,18.20
2023-01-19T05:56:22.052Z,15.90
2023-01-19T05:57:22.038Z,17.70
2023-01-19T05:58:22.015Z,17.70
2023-01-19T05:59:22.015Z,17.20
2023-01-19T06:00:22.008Z,17.40
2023-01-19T06:01:21.979Z,17.30
2023-01-19T06:02:22.002Z,16.70
2023-01-19T06:03:21.971Z,17.60
2023-01-19T06:04:21.934Z,18.10
2023-01-19T06:05:21.945Z,16.70
2023-01-19T06:06:21.914Z,17.10
2023-01-19T06:07:23.838Z,15.80
2023-01-19T06:08:21.885Z,15.40
2023-01-19T06:09:21.883Z,15.50
2023-01-19T06:10:21.870Z,15.30
2023-01-19T06:11:21.869Z,17.20
2023-01-19T06:12:21.832Z,16.20
2023-01-19T06:13:21.838Z,16.60
2023-01-19T06:14:21.811Z,15.10
2023-01-19T06:15:21.812Z,13.40
2023-01-19T06:16:21.820Z,14.80
2023-01-19T06:17:21.784Z,15.40
2023-01-19T06:18:21.771Z,12.30
2023-01-19T06:19:21.757Z,14.30
2023-01-19T06:20:21.751Z,13.00
2023-01-19T06:21:21.730Z,11.60
2023-01-19T06:22:21.710Z,13.80
2023-01-19T06:23:21.703Z,13.90
2023-01-19T06:24:21.690Z,14.50
2023-01-19T06:25:21.689Z,12.90
2023-01-19T06:26:21.665Z,11.60
2023-01-19T06:27:21.660Z,11.60
2023-01-19T06:28:21.638Z,12.70
2023-01-19T06:29:21.623Z,13.60
2023-01-19T06:30:21.623Z,12.40
2023-01-19T06:31:21.677Z,12.60
2023-01-19T06:32:21.585Z,12.80
2023-01-19T06:33:21.567Z,12.90
2023-01-19T06:34:21.585Z,13.20
2023-01-19T06:35:21.557Z,11.30
2023-01-19T06:36:21.539Z,13.60
2023-01-19T06:37:21.528Z,13.90
2023-01-19T06:38:21.508Z,14.40
2023-01-19T06:39:21.496Z,14.90
2023-01-19T06:40:21.520Z,13.90
2023-01-19T06:41:21.475Z,13.10
2023-01-19T06:42:21.456Z,13.80
2023-01-19T06:43:21.460Z,14.50
2023-01-19T06:44:21.434Z,14.10
2023-01-19T06:45:21.435Z,13.70
2023-01-19T06:46:21.411Z,14.10
2023-01-19T06:47:21.399Z,13.10
2023-01-19T06:48:21.378Z,14.80
2023-01-19T06:49:21.376Z,13.70
2023-01-19T06:50:21.365Z,14.30
2023-01-19T06:51:21.343Z,13.50
2023-01-19T06:52:21.332Z,15.30
2023-01-19T06:53:21.461Z,13.90
2023-01-19T06:54:21.304Z,14.00
2023-01-19T06:55:21.306Z,13.40
2023-01-19T06:56:21.281Z,13.80
2023-01-19T06:57:21.281Z,13.50
2023-01-19T06:58:21.282Z,12.40
2023-01-19T06:59:21.241Z,14.00
2023-01-19T07:00:21.240Z,12.60
2023-01-19T07:01:21.303Z,13.50
2023-01-19T07:02:27.340Z,13.70
2023-01-19T07:03:22.280Z,10.10
2023-01-19T07:04:21.190Z,12.50
2023-01-19T07:05:21.181Z,13.80
2023-01-19T07:06:21.161Z,13.30
2023-01-19T07:07:21.151Z,13.10
2023-01-19T07:08:21.135Z,13.70
2023-01-19T07:09:21.121Z,14.20
2023-01-19T07:10:21.111Z,11.90
2023-01-19T07:11:25.977Z,13.00
2023-01-19T07:12:22.092Z,13.70
2023-01-19T07:13:21.069Z,13.50
2023-01-19T07:14:21.050Z,13.20
2023-01-19T07:15:21.047Z,12.80
2023-01-19T07:16:21.098Z,13.60
2023-01-19T07:17:21.026Z,12.40
2023-01-19T07:18:21.005Z,14.10
2023-01-19T07:19:20.996Z,14.30
2023-01-19T07:20:20.976Z,12.50
2023-01-19T07:21:20.995Z,13.10
2023-01-19T07:22:20.966Z,13.00
2023-01-19T07:23:20.946Z,13.80
2023-01-19T07:24:20.926Z,13.20
2023-01-19T07:25:20.938Z,13.40
2023-01-19T07:26:20.923Z,8.20
2023-01-19T07:27:20.926Z,8.20
2023-01-19T07:28:20.876Z,13.50
2023-01-19T07:29:20.865Z,13.00
2023-01-19T07:30:20.854Z,11.70
2023-01-19T07:31:20.969Z,12.90
2023-01-19T07:32:20.895Z,13.80
2023-01-19T07:33:20.816Z,10.30
2023-01-19T07:34:20.826Z,13.60
2023-01-19T07:35:20.809Z,13.10
2023-01-19T07:36:20.802Z,13.00
2023-01-19T07:37:20.763Z,14.20
2023-01-19T07:38:20.761Z,13.90
2023-01-19T07:39:20.749Z,11.90
2023-01-19T07:40:22.163Z,12.60
2023-01-19T07:41:20.739Z,12.60
2023-01-19T07:42:20.702Z,14.00
2023-01-19T07:43:20.692Z,14.50
2023-01-19T07:44:20.684Z,14.20
2023-01-19T07:45:20.675Z,13.50
2023-01-19T07:46:20.738Z,13.20
2023-01-19T07:47:20.650Z,14.20
2023-01-19T07:48:20.630Z,14.10
2023-01-19T07:49:20.643Z,13.50
2023-01-19T07:50:20.599Z,14.40
2023-01-19T07:51:20.599Z,14.30
2023-01-19T07:52:20.579Z,13.60
2023-01-19T07:53:20.571Z,9.80
2023-01-19T07:54:20.550Z,13.90
2023-01-19T07:55:20.559Z,14.80
2023-01-19T07:56:20.538Z,13.50
2023-01-19T07:57:20.517Z,13.90
2023-01-19T07:58:20.502Z,14.90
2023-01-19T07:59:20.498Z,11.80
2023-01-19T08:00:20.475Z,14.30
2023-01-19T08:01:20.539Z,12.20
2023-01-19T08:02:20.525Z,12.80
2023-01-19T08:03:20.492Z,11.90
2023-01-19T08:04:20.447Z,13.20
2023-01-19T08:05:20.434Z,15.80
2023-01-19T08:06:20.417Z,8.60
2023-01-19T08:07:20.399Z,15.40
2023-01-19T08:08:20.406Z,10.70
2023-01-19T08:09:20.366Z,14.40
2023-01-19T08:10:20.354Z,15.30
2023-01-19T08:11:20.370Z,15.60
2023-01-19T08:12:20.333Z,16.00
2023-01-19T08:13:20.332Z,11.70
2023-01-19T08:14:20.303Z,11.90
2023-01-19T08:15:20.323Z,14.70
2023-01-19T08:16:20.304Z,15.70
2023-01-19T08:17:20.274Z,15.20
2023-01-19T08:18:20.259Z,15.00
2023-01-19T08:19:20.241Z,15.40
2023-01-19T08:20:20.238Z,15.50
2023-01-19T08:21:20.213Z,14.90
2023-01-19T08:22:20.224Z,14.20
2023-01-19T08:23:20.191Z,16.00
2023-01-19T08:24:20.235Z,16.40
2023-01-19T08:25:20.173Z,21.70
2023-01-19T08:26:20.196Z,16.90
2023-01-19T08:27:20.149Z,15.70
2023-01-19T08:28:20.132Z,28.00
2023-01-19T08:29:20.120Z,105.40
2023-01-19T08:30:20.101Z,112.90
2023-01-19T08:31:23.568Z,22.60
2023-01-19T08:32:20.168Z,21.30
2023-01-19T08:33:20.060Z,22.30
2023-01-19T08:34:20.050Z,15.00
2023-01-19T08:35:20.041Z,15.50
2023-01-19T08:36:20.048Z,23.60
2023-01-19T08:37:20.018Z,15.40
2023-01-19T08:38:20.004Z,33.00
2023-01-19T08:39:19.990Z,16.40
2023-01-19T08:40:19.980Z,14.80
2023-01-19T08:41:19.967Z,18.30
2023-01-19T08:42:19.970Z,19.90
2023-01-19T08:43:19.941Z,23.10
2023-01-19T08:44:19.929Z,33.80
2023-01-19T08:45:19.906Z,32.00
2023-01-19T08:46:19.981Z,14.10
2023-01-19T08:47:20.042Z,13.90
2023-01-19T08:48:19.993Z,12.60
2023-01-19T08:49:19.867Z,16.30
2023-01-19T08:50:19.907Z,9.30
2023-01-19T08:51:19.942Z,11.90
2023-01-19T08:52:19.845Z,11.50
2023-01-19T08:53:19.821Z,14.20
2023-01-19T08:54:19.804Z,12.20
2023-01-19T08:55:19.787Z,8.40
2023-01-19T08:56:20.812Z,10.10
2023-01-19T08:57:19.785Z,11.70
2023-01-19T08:58:19.749Z,9.60
2023-01-19T08:59:19.743Z,10.60
2023-01-19T09:00:19.755Z,9.90
2023-01-19T09:01:19.831Z,11.60
2023-01-19T09:02:19.741Z,11.40
2023-01-19T09:03:19.746Z,11.50
2023-01-19T09:04:19.677Z,12.00
2023-01-19T09:05:19.723Z,9.50
2023-01-19T09:06:19.647Z,10.90
2023-01-19T09:07:19.644Z,11.40
2023-01-19T09:08:19.612Z,10.80
2023-01-19T09:09:19.631Z,6.50
2023-01-19T09:10:19.606Z,14.00
2023-01-19T09:11:19.580Z,7.50
2023-01-19T09:12:19.580Z,12.30
2023-01-19T09:13:19.570Z,16.20
2023-01-19T09:14:19.539Z,13.40
2023-01-19T09:15:19.551Z,13.00
2023-01-19T09:16:19.554Z,12.60
2023-01-19T09:17:19.519Z,16.90
2023-01-19T09:18:19.503Z,12.60
2023-01-19T09:19:19.498Z,10.30
2023-01-19T09:20:19.469Z,12.90
2023-01-19T09:21:19.459Z,11.10
2023-01-19T09:22:19.458Z,12.10
2023-01-19T09:23:19.454Z,13.00
2023-01-19T09:24:19.418Z,12.30
2023-01-19T09:25:19.407Z,12.70
2023-01-19T09:26:19.388Z,12.80
2023-01-19T09:27:19.391Z,11.00
2023-01-19T09:28:19.373Z,10.70
2023-01-19T09:29:19.356Z,12.80
2023-01-19T09:30:19.352Z,13.60
2023-01-19T09:31:19.460Z,11.00
2023-01-19T09:32:19.324Z,11.70
2023-01-19T09:33:19.322Z,11.20
2023-01-19T09:34:19.295Z,11.60
2023-01-19T09:35:19.302Z,11.20
2023-01-19T09:36:19.264Z,11.70
2023-01-19T09:37:19.275Z,13.00
2023-01-19T09:38:19.235Z,12.30
2023-01-19T09:39:19.239Z,11.90
2023-01-19T09:40:19.243Z,14.70
2023-01-19T09:41:19.285Z,11.70
2023-01-19T09:42:19.203Z,11.20
2023-01-19T09:43:19.186Z,11.00
2023-01-19T09:44:19.168Z,9.10
2023-01-19T09:45:19.153Z,9.90
2023-01-19T09:46:19.164Z,11.90
2023-01-19T09:47:19.135Z,9.90
2023-01-19T09:48:19.128Z,10.70
2023-01-19T09:49:19.115Z,11.10
2023-01-19T09:50:19.090Z,12.10
2023-01-19T09:51:19.081Z,12.30
2023-01-19T09:52:19.072Z,11.70
2023-01-19T09:53:19.052Z,12.50
2023-01-19T09:54:19.043Z,11.20
2023-01-19T09:55:19.021Z,9.90
2023-01-19T09:56:19.015Z,9.40
2023-01-19T09:57:19.037Z,10.50
2023-01-19T09:58:18.991Z,11.00
2023-01-19T09:59:18.978Z,9.80
2023-01-19T10:00:18.963Z,13.60
2023-01-19T10:01:19.078Z,11.50
2023-01-19T10:02:18.954Z,10.70
2023-01-19T10:03:19.010Z,12.50
2023-01-19T10:04:18.923Z,12.20
2023-01-19T10:05:18.902Z,11.80
2023-01-19T10:06:18.893Z,12.10
2023-01-19T10:07:18.889Z,12.70
2023-01-19T10:08:18.878Z,11.50
2023-01-19T10:09:18.859Z,13.40
2023-01-19T10:10:18.841Z,13.10
2023-01-19T10:11:18.843Z,13.80
2023-01-19T10:12:19.893Z,12.10
2023-01-19T10:13:18.817Z,13.20
2023-01-19T10:14:18.934Z,8.80
2023-01-19T10:15:18.783Z,11.70
2023-01-19T10:16:18.824Z,12.80
2023-01-19T10:17:18.765Z,11.60
2023-01-19T10:18:18.745Z,10.00
2023-01-19T10:19:18.722Z,10.90
2023-01-19T10:20:18.710Z,10.00
2023-01-19T10:21:18.704Z,10.10
2023-01-19T10:22:18.675Z,10.10
2023-01-19T10:23:18.698Z,10.60
2023-01-19T10:24:18.655Z,14.00
2023-01-19T10:25:18.712Z,15.10
2023-01-19T10:26:18.632Z,10.40
2023-01-19T10:27:18.622Z,8.90
2023-01-19T10:28:18.612Z,10.50
2023-01-19T10:29:18.619Z,11.80
2023-01-19T10:30:18.612Z,9.80
2023-01-19T10:31:18.734Z,10.50
2023-01-19T10:32:18.555Z,10.10
2023-01-19T10:33:18.579Z,10.80
2023-01-19T10:34:20.950Z,9.70
2023-01-19T10:35:18.523Z,9.70
2023-01-19T10:36:18.509Z,10.80
2023-01-19T10:37:18.542Z,12.50
2023-01-19T10:38:18.503Z,9.60
2023-01-19T10:39:18.473Z,12.20
2023-01-19T10:40:18.508Z,11.40
2023-01-19T10:41:18.450Z,13.20
2023-01-19T10:42:18.434Z,12.70
2023-01-19T10:43:18.482Z,12.20
2023-01-19T10:44:18.405Z,12.60
2023-01-19T10:45:18.408Z,13.10
2023-01-19T10:46:18.428Z,12.80
2023-01-19T10:47:18.416Z,13.30
2023-01-19T10:48:18.373Z,14.10
2023-01-19T10:49:18.339Z,11.00
2023-01-19T10:50:18.418Z,11.90
2023-01-19T10:51:18.386Z,13.30
2023-01-19T10:52:19.099Z,14.40
2023-01-19T10:53:18.299Z,13.60
2023-01-19T10:54:18.302Z,13.50
2023-01-19T10:55:18.320Z,13.60
2023-01-19T10:56:18.252Z,13.90
2023-01-19T10:57:18.225Z,14.00
2023-01-19T10:58:19.010Z,11.70
2023-01-19T10:59:18.316Z,14.80
2023-01-19T11:00:18.260Z,14.60
2023-01-19T11:01:18.311Z,14.00
2023-01-19T11:02:18.454Z,15.30
2023-01-19T11:03:18.239Z,14.20
2023-01-19T11:04:18.142Z,14.70
2023-01-19T11:05:18.136Z,20.90
2023-01-19T11:06:18.115Z,14.20
2023-01-19T11:07:18.106Z,31.60
2023-01-19T11:08:18.100Z,17.90
2023-01-19T11:09:18.091Z,82.50
2023-01-19T11:10:18.195Z,22.50
2023-01-19T11:11:18.057Z,24.80
2023-01-19T11:12:18.034Z,40.10
2023-01-19T11:13:18.044Z,34.40
2023-01-19T11:14:18.022Z,18.50
2023-01-19T11:15:18.020Z,30.40
2023-01-19T11:16:18.009Z,16.00
2023-01-19T11:17:17.973Z,14.50
2023-01-19T11:18:17.973Z,14.60
2023-01-19T11:19:17.953Z,15.10
2023-01-19T11:20:17.946Z,14.00
2023-01-19T11:21:17.936Z,13.40
2023-01-19T11:22:17.923Z,14.40
2023-01-19T11:23:17.903Z,13.80
2023-01-19T11:24:17.892Z,13.60
2023-01-19T11:25:17.883Z,15.20
2023-01-19T11:26:17.863Z,13.60
2023-01-19T11:27:17.853Z,13.90
2023-01-19T11:28:17.852Z,14.70
2023-01-19T11:29:17.821Z,13.50
2023-01-19T11:30:17.838Z,13.80
2023-01-19T11:31:17.878Z,16.70
2023-01-19T11:32:17.791Z,15.70
2023-01-19T11:33:17.779Z,14.70
2023-01-19T11:34:17.770Z,13.70
2023-01-19T11:35:17.749Z,15.80
2023-01-19T11:36:17.748Z,14.10
2023-01-19T11:37:17.720Z,13.20
2023-01-19T11:38:17.709Z,12.80
2023-01-19T11:39:17.720Z,13.40
2023-01-19T11:40:17.688Z,12.50
2023-01-19T11:41:17.670Z,11.10
2023-01-19T11:42:17.672Z,11.00
2023-01-19T11:43:17.645Z,9.70
2023-01-19T11:44:17.649Z,10.40
2023-01-19T11:45:17.619Z,10.00
2023-01-19T11:46:17.673Z,14.30
2023-01-19T11:47:17.597Z,13.00
2023-01-19T11:48:17.585Z,11.50
2023-01-19T11:49:17.578Z,10.60
2023-01-19T11:50:17.558Z,8.20
2023-01-19T11:51:17.584Z,10.20
2023-01-19T11:52:17.616Z,9.70
2023-01-19T11:53:17.525Z,9.10
2023-01-19T11:54:17.526Z,9.10
2023-01-19T11:55:17.508Z,10.00
2023-01-19T11:56:17.486Z,9.50
2023-01-19T11:57:17.479Z,9.30
2023-01-19T11:58:17.462Z,9.90
2023-01-19T11:59:17.450Z,11.80
2023-01-19T12:00:17.425Z,10.40
2023-01-19T12:01:17.453Z,13.50
2023-01-19T12:02:17.430Z,11.90
2023-01-19T12:03:17.423Z,11.50
2023-01-19T12:04:17.411Z,13.70
2023-01-19T12:05:17.355Z,10.40
2023-01-19T12:06:17.366Z,12.40
2023-01-19T12:07:17.340Z,11.80
2023-01-19T12:08:17.326Z,11.70
2023-01-19T12:09:17.320Z,9.20
2023-01-19T12:10:17.296Z,8.30
2023-01-19T12:11:17.285Z,10.00
2023-01-19T12:12:17.275Z,10.80
2023-01-19T12:13:17.255Z,10.70
2023-01-19T12:14:17.269Z,10.90
2023-01-19T12:15:17.236Z,12.10
2023-01-19T12:16:17.324Z,14.00
2023-01-19T12:17:17.230Z,11.40
2023-01-19T12:18:17.194Z,10.40
2023-01-19T12:19:17.198Z,9.50
2023-01-19T12:20:17.175Z,10.40
2023-01-19T12:21:17.153Z,10.20
2023-01-19T12:22:17.148Z,10.60
2023-01-19T12:23:17.123Z,10.10
2023-01-19T12:24:17.166Z,10.10
2023-01-19T12:25:17.103Z,10.90
2023-01-19T12:26:17.096Z,10.60
2023-01-19T12:27:17.082Z,11.00
2023-01-19T12:28:17.071Z,9.80
2023-01-19T12:29:17.073Z,11.00
2023-01-19T12:30:17.045Z,11.10
2023-01-19T12:31:17.172Z,10.90
2023-01-19T12:32:17.020Z,11.30
2023-01-19T12:33:17.010Z,11.80
2023-01-19T12:34:17.004Z,11.50
2023-01-19T12:35:16.982Z,12.30
2023-01-19T12:36:16.973Z,12.30
2023-01-19T12:37:16.949Z,11.70
2023-01-19T12:38:16.950Z,12.90
2023-01-19T12:39:16.949Z,12.90
2023-01-19T12:40:16.919Z,12.30
2023-01-19T12:41:16.902Z,12.50
2023-01-19T12:42:16.906Z,13.00
2023-01-19T12:43:16.871Z,13.30
2023-01-19T12:44:16.922Z,13.70
2023-01-19T12:45:16.851Z,12.70
2023-01-19T12:46:16.936Z,11.70
2023-01-19T12:47:16.826Z,13.00
2023-01-19T12:48:16.818Z,12.90
2023-01-19T12:49:16.823Z,12.50
2023-01-19T12:50:16.909Z,12.30
2023-01-19T12:51:16.796Z,12.20
2023-01-19T12:52:16.772Z,12.60
2023-01-19T12:53:16.796Z,12.60
2023-01-19T12:54:16.771Z,12.40
2023-01-19T12:55:16.777Z,13.10
2023-01-19T12:56:16.731Z,12.50
2023-01-19T12:57:16.727Z,12.20
2023-01-19T12:58:16.689Z,12.70
2023-01-19T12:59:16.678Z,10.80
2023-01-19T13:00:16.680Z,11.90
2023-01-19T13:01:16.791Z,11.70
2023-01-19T13:02:16.768Z,11.50
2023-01-19T13:03:16.634Z,12.50
2023-01-19T13:04:16.618Z,11.90
2023-01-19T13:05:16.604Z,12.20
2023-01-19T13:06:16.585Z,11.80
2023-01-19T13:07:16.595Z,12.20
2023-01-19T13:08:16.575Z,12.30
2023-01-19T13:09:16.626Z,10.60
2023-01-19T13:10:16.544Z,13.30
2023-01-19T13:11:16.524Z,13.20
2023-01-19T13:12:16.516Z,12.60
2023-01-19T13:13:16.544Z,11.60
2023-01-19T13:14:16.486Z,11.80
2023-01-19T13:15:16.486Z,13.10
2023-01-19T13:16:16.519Z,12.70
2023-01-19T13:17:16.462Z,11.70
2023-01-19T13:18:16.443Z,10.80
2023-01-19T13:19:16.436Z,11.30
2023-01-19T13:20:16.432Z,10.60
2023-01-19T13:21:16.401Z,11.10
2023-01-19T13:22:16.412Z,11.50
2023-01-19T13:23:16.371Z,10.70
2023-01-19T13:24:16.374Z,11.00
2023-01-19T13:25:16.399Z,11.40
2023-01-19T13:26:16.358Z,10.40
2023-01-19T13:27:16.331Z,10.20
2023-01-19T13:28:16.330Z,9.40
2023-01-19T13:29:16.303Z,9.90
2023-01-19T13:30:16.324Z,9.70
2023-01-19T13:31:16.362Z,9.20
2023-01-19T13:32:16.263Z,10.10
2023-01-19T13:33:16.250Z,10.20
2023-01-19T13:34:16.238Z,11.00
2023-01-19T13:35:16.240Z,11.10
2023-01-19T13:36:16.263Z,10.30
2023-01-19T13:37:16.191Z,12.00
2023-01-19T13:38:16.178Z,10.50
2023-01-19T13:39:18.334Z,10.20
2023-01-19T13:40:16.170Z,10.60
2023-01-19T13:41:16.148Z,10.90
2023-01-19T13:42:16.128Z,10.60
2023-01-19T13:43:16.128Z,11.00
2023-01-19T13:44:16.098Z,11.00
2023-01-19T13:45:16.118Z,11.00
2023-01-19T13:46:16.119Z,14.10
2023-01-19T13:47:16.087Z,11.20
2023-01-19T13:48:16.064Z,11.00
2023-01-19T13:49:16.047Z,10.20
2023-01-19T13:50:16.037Z,10.20
2023-01-19T13:51:16.018Z,9.90
2023-01-19T13:52:16.009Z,11.50
2023-01-19T13:53:15.996Z,11.60
2023-01-19T13:54:15.987Z,11.80
2023-01-19T13:55:15.978Z,11.60
2023-01-19T13:56:15.965Z,11.00
2023-01-19T13:57:15.941Z,11.60
2023-01-19T13:58:15.924Z,10.80
2023-01-19T13:59:15.971Z,11.70
2023-01-19T14:00:15.906Z,11.90
2023-01-19T14:01:15.978Z,11.60
2023-01-19T14:02:15.947Z,12.10
2023-01-19T14:03:15.954Z,10.20
2023-01-19T14:04:15.860Z,11.40
2023-01-19T14:05:15.857Z,14.70
2023-01-19T14:06:15.848Z,12.20
2023-01-19T14:07:15.843Z,11.90
2023-01-19T14:08:15.816Z,11.50
2023-01-19T14:09:15.784Z,11.80
2023-01-19T14:10:15.787Z,12.10
2023-01-19T14:11:15.763Z,11.80
2023-01-19T14:12:15.805Z,12.80
2023-01-19T14:13:15.765Z,11.50
2023-01-19T14:14:15.751Z,11.60
2023-01-19T14:15:15.712Z,12.10
2023-01-19T14:16:15.797Z,12.10
2023-01-19T14:17:15.746Z,11.60
2023-01-19T14:18:15.680Z,10.10
2023-01-19T14:19:15.705Z,10.50
2023-01-19T14:20:15.661Z,12.90
2023-01-19T14:21:15.630Z,11.40
2023-01-19T14:22:15.625Z,11.10
2023-01-19T14:23:15.602Z,11.50
2023-01-19T14:24:16.950Z,11.10
2023-01-19T14:25:15.600Z,11.60
2023-01-19T14:26:15.580Z,11.70
2023-01-19T14:27:15.564Z,11.30
2023-01-19T14:28:15.551Z,10.90
2023-01-19T14:29:15.530Z,10.90
2023-01-19T14:30:15.532Z,12.10
2023-01-19T14:31:22.770Z,11.40
2023-01-19T14:32:15.493Z,12.00
2023-01-19T14:33:15.607Z,10.90
2023-01-19T14:34:15.471Z,12.40
2023-01-19T14:35:15.470Z,12.00
2023-01-19T14:36:17.665Z,11.90
2023-01-19T14:37:15.472Z,11.50
2023-01-19T14:38:15.455Z,12.80
2023-01-19T14:39:15.419Z,13.60
2023-01-19T14:40:15.419Z,13.30
2023-01-19T14:41:15.371Z,12.80
2023-01-19T14:42:17.436Z,13.10
2023-01-19T14:43:15.351Z,12.10
2023-01-19T14:44:15.350Z,12.30
2023-01-19T14:45:15.422Z,12.50
2023-01-19T14:46:15.337Z,13.50
2023-01-19T14:47:15.322Z,12.70
2023-01-19T14:48:17.815Z,12.70
2023-01-19T14:49:15.269Z,16.50
2023-01-19T14:50:15.261Z,14.00
2023-01-19T14:51:15.260Z,11.50
2023-01-19T14:52:15.241Z,12.60
2023-01-19T14:53:15.233Z,13.60
2023-01-19T14:54:15.221Z,12.80
2023-01-19T14:55:15.198Z,13.20
2023-01-19T14:56:15.208Z,13.50
2023-01-19T14:57:15.197Z,16.10
2023-01-19T14:58:15.188Z,13.70
2023-01-19T14:59:15.160Z,15.00
2023-01-19T15:00:17.247Z,14.20
2023-01-19T15:01:15.271Z,14.10
2023-01-19T15:02:15.151Z,15.40
2023-01-19T15:03:15.096Z,15.40
2023-01-19T15:04:15.085Z,15.70
2023-01-19T15:05:15.072Z,15.70
2023-01-19T15:06:15.073Z,14.60
2023-01-19T15:07:15.045Z,13.10
2023-01-19T15:08:15.034Z,13.90
2023-01-19T15:09:15.030Z,13.50
2023-01-19T15:10:15.017Z,15.40
2023-01-19T15:11:15.004Z,13.90
2023-01-19T15:12:17.197Z,13.10
2023-01-19T15:13:14.963Z,12.60
2023-01-19T15:14:14.953Z,12.90
2023-01-19T15:15:14.943Z,13.60
2023-01-19T15:16:15.031Z,16.00
2023-01-19T15:17:14.933Z,13.70
2023-01-19T15:18:15.747Z,13.90
2023-01-19T15:19:14.901Z,12.80
2023-01-19T15:20:14.896Z,13.70
2023-01-19T15:21:14.892Z,13.40
2023-01-19T15:22:14.864Z,12.50
2023-01-19T15:23:14.847Z,13.70
2023-01-19T15:24:17.580Z,13.50
2023-01-19T15:25:14.821Z,13.40
2023-01-19T15:26:14.831Z,15.00
2023-01-19T15:27:14.792Z,14.10
2023-01-19T15:28:14.792Z,13.60
2023-01-19T15:29:14.778Z,14.50
2023-01-19T15:30:14.774Z,14.10
2023-01-19T15:31:14.794Z,14.40
2023-01-19T15:32:14.774Z,17.50
2023-01-19T15:33:14.710Z,15.90
2023-01-19T15:34:14.702Z,15.50
2023-01-19T15:35:14.695Z,14.20
2023-01-19T15:36:16.941Z,15.20
2023-01-19T15:37:14.659Z,13.90
2023-01-19T15:38:14.650Z,15.50
2023-01-19T15:39:14.632Z,18.30
2023-01-19T15:40:14.668Z,15.60
2023-01-19T15:41:14.629Z,15.20
2023-01-19T15:42:14.634Z,16.50
2023-01-19T15:43:14.594Z,16.00
2023-01-19T15:44:14.578Z,17.70
2023-01-19T15:45:14.569Z,17.60
2023-01-19T15:46:14.567Z,15.10
2023-01-19T15:47:14.551Z,16.70
2023-01-19T15:48:14.519Z,18.90
2023-01-19T15:49:14.540Z,17.40
2023-01-19T15:50:14.487Z,17.70
2023-01-19T15:51:14.516Z,17.40
2023-01-19T15:52:16.949Z,18.00
2023-01-19T15:53:14.478Z,17.60
2023-01-19T15:54:14.449Z,17.70
2023-01-19T15:55:14.444Z,19.40
2023-01-19T15:56:14.474Z,18.40
2023-01-19T15:57:14.426Z,19.60
2023-01-19T15:58:14.395Z,19.40
2023-01-19T15:59:14.399Z,20.60
2023-01-19T16:00:14.418Z,18.70
2023-01-19T16:01:14.484Z,24.00
2023-01-19T16:02:14.475Z,25.90
2023-01-19T16:03:14.327Z,24.30
2023-01-19T16:04:16.540Z,23.40
2023-01-19T16:05:14.323Z,25.60
2023-01-19T16:06:14.293Z,20.40
2023-01-19T16:07:14.314Z,20.20
2023-01-19T16:08:14.271Z,18.40
2023-01-19T16:09:14.268Z,18.80
2023-01-19T16:10:14.243Z,20.10
2023-01-19T16:11:14.227Z,19.50
2023-01-19T16:12:14.235Z,18.60
2023-01-19T16:13:14.202Z,19.70
2023-01-19T16:14:15.558Z,20.10
2023-01-19T16:15:14.191Z,20.30
2023-01-19T16:16:14.193Z,18.70
2023-01-19T16:17:14.162Z,18.80
2023-01-19T16:18:14.180Z,17.30
2023-01-19T16:19:14.130Z,19.40
2023-01-19T16:20:14.949Z,19.70
2023-01-19T16:21:14.102Z,19.10
2023-01-19T16:22:14.172Z,18.80
2023-01-19T16:23:15.354Z,18.50
2023-01-19T16:24:14.077Z,20.40
2023-01-19T16:25:14.047Z,19.60
2023-01-19T16:26:15.198Z,20.30
2023-01-19T16:27:14.036Z,19.60
2023-01-19T16:28:14.013Z,18.80
2023-01-19T16:29:14.002Z,18.70
2023-01-19T16:30:13.987Z,18.50
2023-01-19T16:31:14.021Z,20.40
2023-01-19T16:32:14.604Z,18.60
2023-01-19T16:33:13.973Z,19.60
2023-01-19T16:34:13.949Z,19.10
2023-01-19T16:35:13.948Z,19.70
2023-01-19T16:36:13.937Z,21.40
2023-01-19T16:37:13.939Z,22.20
2023-01-19T16:38:13.893Z,22.10
2023-01-19T16:39:13.881Z,24.30
2023-01-19T16:40:13.876Z,20.40
2023-01-19T16:41:13.840Z,22.70
2023-01-19T16:42:13.869Z,22.10
2023-01-19T16:43:13.815Z,22.80
2023-01-19T16:44:13.828Z,20.80
2023-01-19T16:45:13.799Z,20.80
2023-01-19T16:46:13.872Z,20.50
2023-01-19T16:47:13.774Z,23.60
2023-01-19T16:48:13.775Z,25.50
2023-01-19T16:49:13.751Z,24.70
2023-01-19T16:50:13.736Z,25.10
2023-01-19T16:51:13.713Z,24.00
2023-01-19T16:52:13.724Z,23.50
2023-01-19T16:53:13.692Z,21.60
2023-01-19T16:54:13.704Z,22.20
2023-01-19T16:55:13.699Z,21.80
2023-01-19T16:56:13.675Z,22.10
2023-01-19T16:57:13.651Z,23.40
2023-01-19T16:58:13.631Z,24.80
2023-01-19T16:59:13.631Z,22.30
2023-01-19T17:00:13.968Z,26.70
2023-01-19T17:01:13.704Z,30.90
2023-01-19T17:02:13.714Z,23.50
2023-01-19T17:03:13.561Z,24.20
2023-01-19T17:04:13.600Z,23.00
2023-01-19T17:05:13.569Z,23.00
2023-01-19T17:06:13.542Z,23.70
2023-01-19T17:07:13.526Z,24.10
2023-01-19T17:08:13.529Z,28.70
2023-01-19T17:09:13.480Z,26.00
2023-01-19T17:10:13.836Z,23.80
2023-01-19T17:11:13.467Z,23.10
2023-01-19T17:12:13.486Z,23.60
2023-01-19T17:13:13.439Z,25.40
2023-01-19T17:14:13.434Z,44.30
2023-01-19T17:15:13.420Z,35.00
2023-01-19T17:16:13.412Z,30.00
2023-01-19T17:17:13.427Z,26.60
2023-01-19T17:18:13.387Z,22.80
2023-01-19T17:19:13.377Z,25.30
2023-01-19T17:20:13.686Z,21.40
2023-01-19T17:21:13.356Z,25.20
2023-01-19T17:22:13.340Z,27.80
2023-01-19T17:23:13.317Z,24.90
2023-01-19T17:24:13.302Z,40.50
2023-01-19T17:25:13.285Z,27.80
2023-01-19T17:26:13.278Z,65.20
2023-01-19T17:27:13.313Z,113.80
2023-01-19T17:28:13.258Z,51.50
2023-01-19T17:29:13.256Z,41.90
2023-01-19T17:30:13.651Z,29.90
2023-01-19T17:31:14.332Z,48.60
2023-01-19T17:32:13.231Z,20.80
2023-01-19T17:33:13.188Z,55.80
2023-01-19T17:34:13.183Z,40.30
2023-01-19T17:35:13.165Z,35.10
2023-01-19T17:36:13.152Z,26.90
2023-01-19T17:37:13.162Z,64.90
2023-01-19T17:38:13.142Z,58.80
2023-01-19T17:39:13.110Z,30.10
2023-01-19T17:40:13.394Z,30.20
2023-01-19T17:41:13.100Z,43.60
2023-01-19T17:42:13.083Z,36.30
2023-01-19T17:43:13.062Z,28.20
2023-01-19T17:44:13.067Z,29.10
2023-01-19T17:45:13.030Z,38.80
2023-01-19T17:46:13.055Z,22.90
2023-01-19T17:47:13.020Z,22.70
2023-01-19T17:48:13.005Z,23.60
2023-01-19T17:49:12.991Z,48.20
2023-01-19T17:50:13.304Z,22.10
2023-01-19T17:51:12.982Z,25.00
2023-01-19T17:52:12.981Z,22.80
2023-01-19T17:53:12.976Z,25.20
2023-01-19T17:54:12.928Z,55.20
2023-01-19T17:55:12.949Z,29.70
2023-01-19T17:56:12.930Z,27.80
2023-01-19T17:57:12.872Z,34.80
2023-01-19T17:58:12.888Z,94.30
2023-01-19T17:59:12.849Z,27.90
2023-01-19T18:00:13.196Z,18.90
2023-01-19T18:01:12.906Z,15.60
2023-01-19T18:02:13.001Z,22.40
2023-01-19T18:03:12.812Z,13.20
2023-01-19T18:04:12.807Z,14.40
2023-01-19T18:05:12.777Z,14.10
2023-01-19T18:06:12.766Z,31.00
2023-01-19T18:07:12.777Z,17.80
2023-01-19T18:08:12.756Z,23.00